Air Resources Laboratory banner image
Air Resources Laboratory web site National Oceanic and Atmospheric Administration (NOAA)

mo metar


KAIZ 191556Z AUTO 18010G16KT 10SM SCT015 BKN100 15/13 A2983 RMK AO2 PK WND
 15027/1528 RAE56 SLP098 P0004 T01500133=
KCDJ 191552Z AUTO 18011G18KT 18/16 A2968 RMK AO1 SLP045 T01780156 $=
KCGI 191553Z 21017G30KT 10SM OVC010 17/15 A3002 RMK AO2 PK WND 22030/1550 CIG
 007V013 SLP166 T01670150 $=
KCOU 191554Z 18015G23KT 10SM SCT027 BKN049 17/13 A2980 RMK AO2 SLP087 T01720133=
KDMO 191553Z AUTO 20013KT 10SM OVC022 18/15 A2977 RMK AO2 SLP077 T01830150=
KFAM 191556Z AUTO 20013G17KT 10SM OVC013 16/14 A2997 RMK AO2 SLP147 T01560139=
KIRK 191555Z AUTO 19015G22KT 10SM OVC024 16/15 A2971 RMK AO2 SLP065 T01560150=
KJEF 191553Z 19009KT 10SM OVC027 17/13 A2981 RMK AO2 SLP085 T01720128=
KJLN 191553Z 18014KT 1 1/2SM +RA BR BKN009 OVC040CB 16/16 A2979 RMK AO2 PK WND
 18028/1507 LTG DSNT S RAE10B36 SLP085 P0006 T01610161 $=
KMCI 191553Z 30016KT 8SM BKN005 BKN016 OVC060 04/03 A2970 RMK AO2 PK WND
 22026/1513 WSHFT 1514 RAB25E40 SLP057 P0000 T00440033=
KMKC 191554Z 19017G23KT 10SM BKN024 OVC029 20/14 A2967 RMK AO2 PK WND
 20027/1522 SLP043 T02000144 $=
KPOF 191553Z AUTO 19013G20KT 10SM BKN015 OVC024 17/15 A3002 RMK AO2 SLP165
 T01720150=
KSET 191554Z AUTO 21016G22KT 10SM FEW019 BKN100 16/14 A2987 RMK AO2 PK WND
 21029/1524 RAE23 SLP112 P0002 T01610139=
KSGF 191552Z 13011KT 10SM OVC019 14/13 A2984 RMK AO2 LTG DSNT NE AND SW AND W
 RAE42 TSE1456 SLP101 P0003 T01440133=
KSTJ 191553Z 31012KT 2 1/2SM BR OVC003 01/01 A2974 RMK AO2 SLP074 T00110011 $=
KSTL 191551Z 20020G28KT 10SM FEW031 SCT085 BKN100 OVC200 16/14 A2986 RMK AO2 PK
 WND 17031/1521 RAE42 TSE11 SLP111 P0006 T01610139=
KSUS 191554Z 21012G22KT 9SM FEW031 SCT085 BKN100 16/14 A2987 RMK AO2 PK WND
 17034/1509 RAE27 TSE49 PRESRR SLP113 P0003 T01610139=
KSZL 191556Z AUTO 21024G33KT 10SM OVC021 19/15 A2969 RMK AO2 PK WND 22034/55
 SLP054 T01870146 $=
KTBN 191556Z AUTO 17016G24KT 10SM -DZ FEW007 BKN028 OVC070 14/13 A2987 RMK AO2
 RAB01E14RAB28E36DZB46 TSB01E31 SLP117 P0001 T01430130=
KUNO 191553Z AUTO 18011G24KT 10SM BKN012 OVC019 16/14 A2995 RMK AO2 SLP140
 T01560139=
KVIH 191553Z AUTO 18020G29KT 10SM SCT013 BKN029 OVC095 14/13 A2987 RMK AO2 PK
 WND 19034/1513 LTG DSNT SE AND S RAB11E51 SLP114 P0001 T01440133 $=